Time;durP1;ratioP1;P1;durP2;ratioP2;P2;SDS_P1;SDS_P2;PMS_P1;PMS_P2;Temp;Humidity;BMP_temperature;BMP_pressure;BME280_temperature;BME280_humidity;BME280_pressure;Samples;Min_cycle;Max_cycle;Signal;HPM_P1;HPM_P2
2023/03/30 00:03:41;;;;;;;2.50;1.55;;;15.40;70.70;;;;;;10340417;28;20034;-55
2023/03/30 00:08:42;;;;;;;3.00;1.80;;;15.40;70.70;;;;;;10331523;28;20545;-54
2023/03/30 00:13:44;;;;;;;3.97;1.92;;;15.40;70.70;;;;;;10330744;28;20019;-55
2023/03/30 00:18:44;;;;;;;2.13;1.65;;;15.30;70.70;;;;;;10330918;28;20093;-55
2023/03/30 00:23:46;;;;;;;2.70;1.55;;;15.30;70.60;;;;;;10330509;28;20067;-55
2023/03/30 00:28:47;;;;;;;2.45;1.73;;;15.30;70.60;;;;;;10328773;28;20018;-55
2023/03/30 00:33:47;;;;;;;2.30;1.40;;;15.40;70.60;;;;;;10328820;28;20046;-55
2023/03/30 00:38:49;;;;;;;4.88;2.20;;;15.40;70.60;;;;;;10330005;28;20054;-55
2023/03/30 00:43:55;;;;;;;2.13;1.10;;;15.30;70.60;;;;;;10329432;28;20042;-56
2023/03/30 00:49:04;;;;;;;2.53;1.48;;;15.30;70.60;;;;;;10329599;28;20394;-55
2023/03/30 00:54:15;;;;;;;3.80;1.73;;;15.30;70.50;;;;;;10328118;28;20788;-55
2023/03/30 00:59:16;;;;;;;1.98;0.98;;;15.30;70.50;;;;;;10335427;28;20084;-56
2023/03/30 01:04:17;;;;;;;2.67;1.52;;;15.30;70.50;;;;;;10330755;28;20609;-54
2023/03/30 01:09:18;;;;;;;2.25;1.45;;;15.30;70.50;;;;;;10327390;28;20027;-53
2023/03/30 01:14:19;;;;;;;1.95;1.60;;;15.30;70.50;;;;;;10328633;28;20054;-56
2023/03/30 01:19:50;;;;;;;2.10;1.27;;;15.30;70.60;;;;;;10328521;28;20030;-56
2023/03/30 01:25:28;;;;;;;2.47;1.33;;;15.30;70.60;;;;;;10326836;28;20044;-55
2023/03/30 01:31:03;;;;;;;1.67;1.40;;;15.30;70.70;;;;;;10328021;28;20022;-54
2023/03/30 01:36:44;;;;;;;2.75;1.58;;;15.30;70.50;;;;;;10327496;28;20035;-55
2023/03/30 01:41:53;;;;;;;2.05;1.50;;;15.30;70.50;;;;;;10327803;28;20080;-56
2023/03/30 01:47:16;;;;;;;2.17;1.30;;;15.30;70.50;;;;;;10327303;28;20038;-55
2023/03/30 01:52:45;;;;;;;3.45;1.50;;;15.30;70.50;;;;;;10287140;28;20011;-55
2023/03/30 01:58:13;;;;;;;1.77;1.20;;;15.30;70.50;;;;;;10299689;28;20473;-54
2023/03/30 02:03:21;;;;;;;2.40;1.40;;;15.30;70.60;;;;;;10336703;28;20069;-55
2023/03/30 02:08:27;;;;;;;2.47;1.23;;;15.30;71.20;;;;;;10309534;28;20492;-55
2023/03/30 02:13:30;;;;;;;2.80;1.60;;;15.20;70.50;;;;;;10325023;28;20026;-55
2023/03/30 02:18:31;;;;;;;1.77;1.33;;;15.20;70.50;;;;;;10324938;28;20077;-54
2023/03/30 02:23:37;;;;;;;1.33;1.02;;;15.20;70.50;;;;;;10324664;28;20081;-55
2023/03/30 02:28:38;;;;;;;2.17;1.02;;;15.20;70.50;;;;;;10324528;28;20023;-56
2023/03/30 02:33:58;;;;;;;2.28;1.10;;;15.20;70.60;;;;;;10324273;28;20014;-56
2023/03/30 02:39:23;;;;;;;2.25;1.40;;;15.20;70.60;;;;;;10325238;28;20018;-56
2023/03/30 02:45:10;;;;;;;2.20;1.30;;;15.20;70.50;;;;;;10324926;28;20126;-55
2023/03/30 02:50:26;;;;;;;1.92;1.33;;;15.20;70.50;;;;;;10301061;28;20026;-55
2023/03/30 02:55:35;;;;;;;1.05;0.90;;;15.20;70.50;;;;;;10323636;28;20022;-55
2023/03/30 03:00:58;;;;;;;1.67;1.00;;;15.20;70.40;;;;;;10334751;28;20113;-55
2023/03/30 03:06:01;;;;;;;1.15;0.88;;;15.20;70.50;;;;;;10322920;28;20043;-54
2023/03/30 03:11:02;;;;;;;2.35;1.02;;;15.20;70.50;;;;;;10323205;28;20033;-54
2023/03/30 03:16:05;;;;;;;1.92;1.10;;;15.20;70.50;;;;;;10323891;28;20022;-55
2023/03/30 03:21:07;;;;;;;1.98;1.10;;;15.20;70.50;;;;;;10324208;28;20098;-55
2023/03/30 03:26:09;;;;;;;1.67;0.90;;;15.20;70.50;;;;;;10323345;28;20041;-55
2023/03/30 03:31:11;;;;;;;1.33;0.88;;;15.10;70.50;;;;;;10324279;28;20103;-55
2023/03/30 03:36:11;;;;;;;2.47;1.35;;;15.10;70.50;;;;;;10323974;28;20042;-55
2023/03/30 03:41:12;;;;;;;2.33;1.13;;;15.20;70.40;;;;;;10323762;28;20790;-55
2023/03/30 03:46:14;;;;;;;1.70;0.90;;;15.30;70.00;;;;;;10323711;28;20480;-55
2023/03/30 03:51:14;;;;;;;3.15;1.33;;;15.50;69.70;;;;;;10323588;28;20546;-55
2023/03/30 03:56:15;;;;;;;1.55;1.10;;;15.60;69.50;;;;;;10323374;28;20046;-54
2023/03/30 04:01:16;;;;;;;1.48;1.00;;;15.80;68.50;;;;;;10334046;28;20769;-54
2023/03/30 04:06:17;;;;;;;1.95;1.38;;;16.10;67.60;;;;;;10322926;28;20097;-55
2023/03/30 04:11:19;;;;;;;1.83;1.05;;;16.30;67.20;;;;;;10323357;28;20046;-56
2023/03/30 04:16:19;;;;;;;1.58;0.98;;;16.20;67.10;;;;;;10323371;28;20018;-55
2023/03/30 04:21:21;;;;;;;1.95;0.93;;;16.20;67.20;;;;;;10323028;28;20023;-56
2023/03/30 04:26:22;;;;;;;1.70;0.90;;;16.20;67.30;;;;;;10323112;28;20046;-56
2023/03/30 04:31:23;;;;;;;1.58;0.90;;;16.20;67.50;;;;;;10322928;28;20042;-54
2023/03/30 04:36:23;;;;;;;2.70;0.88;;;16.20;67.60;;;;;;10321615;28;20134;-56
2023/03/30 04:41:34;;;;;;;1.92;0.98;;;16.10;67.70;;;;;;10326949;28;20058;-55
2023/03/30 04:46:36;;;;;;;1.45;0.77;;;16.10;67.90;;;;;;10328982;28;20026;-55
2023/03/30 04:51:38;;;;;;;5.45;1.63;;;16.00;68.30;;;;;;10328146;28;20541;-56
2023/03/30 04:56:39;;;;;;;5.60;1.13;;;16.00;69.30;;;;;;10327040;28;20072;-55
2023/03/30 05:01:40;;;;;;;8.48;2.85;;;16.00;69.00;;;;;;10328642;28;20107;-55
2023/03/30 05:06:40;;;;;;;5.78;2.00;;;16.10;68.90;;;;;;10325892;28;20032;-55
2023/03/30 05:11:41;;;;;;;5.60;1.60;;;16.20;70.00;;;;;;10327621;28;20109;-55
2023/03/30 05:16:42;;;;;;;8.93;2.05;;;16.10;70.10;;;;;;10328283;28;20025;-56
2023/03/30 05:21:43;;;;;;;9.85;1.70;;;16.30;70.00;;;;;;10328288;28;20408;-55
2023/03/30 05:26:43;;;;;;;7.97;2.65;;;16.30;71.90;;;;;;10326585;28;20500;-54
2023/03/30 05:31:44;;;;;;;8.27;2.03;;;16.30;70.90;;;;;;10322592;28;20114;-55
2023/03/30 05:36:45;;;;;;;14.98;3.55;;;16.30;71.10;;;;;;10324941;28;20767;-54
2023/03/30 05:41:45;;;;;;;22.50;3.08;;;16.20;70.90;;;;;;10324896;28;20113;-55
2023/03/30 05:46:46;;;;;;;16.45;2.90;;;16.30;71.10;;;;;;10326545;28;20117;-56
2023/03/30 05:51:47;;;;;;;24.02;3.38;;;16.10;71.20;;;;;;10326795;28;20455;-57
2023/03/30 05:56:47;;;;;;;22.00;3.53;;;16.10;71.90;;;;;;10326998;28;20029;-56
2023/03/30 06:01:48;;;;;;;15.65;3.45;;;16.00;71.60;;;;;;10336318;28;20158;-56
2023/03/30 06:06:49;;;;;;;14.02;2.70;;;15.90;71.80;;;;;;10326552;28;20045;-55
2023/03/30 06:11:50;;;;;;;12.55;2.67;;;15.90;71.50;;;;;;10326724;28;20102;-56
2023/03/30 06:16:51;;;;;;;12.30;2.25;;;15.90;71.80;;;;;;10326041;28;20026;-55
2023/03/30 06:21:53;;;;;;;16.88;2.70;;;15.90;71.60;;;;;;10323476;28;20026;-55
2023/03/30 06:26:54;;;;;;;9.55;2.25;;;15.80;71.80;;;;;;10323706;28;20054;-57
2023/03/30 06:31:55;;;;;;;11.95;2.65;;;15.90;72.50;;;;;;10319555;28;20502;-55
2023/03/30 06:36:56;;;;;;;10.50;2.42;;;15.80;71.60;;;;;;10322907;28;20054;-54
2023/03/30 06:41:56;;;;;;;9.10;2.90;;;15.80;71.60;;;;;;10322433;28;20118;-56
2023/03/30 06:46:57;;;;;;;8.68;2.58;;;15.80;71.60;;;;;;10322165;28;20118;-56
2023/03/30 06:51:58;;;;;;;7.75;1.83;;;15.70;71.60;;;;;;10323195;28;20797;-56
2023/03/30 06:56:58;;;;;;;13.13;2.17;;;15.70;71.50;;;;;;10324604;28;20050;-56
2023/03/30 07:01:59;;;;;;;8.13;2.45;;;15.70;71.60;;;;;;10331480;28;20172;-56
2023/03/30 07:07:00;;;;;;;7.40;2.15;;;15.70;71.50;;;;;;10324651;28;20437;-55
2023/03/30 07:12:01;;;;;;;5.70;1.67;;;15.70;71.40;;;;;;10323112;28;20026;-56
2023/03/30 07:17:02;;;;;;;6.47;1.83;;;15.70;71.10;;;;;;10322805;28;20862;-56
2023/03/30 07:22:02;;;;;;;7.10;2.28;;;15.70;71.00;;;;;;10323503;28;20030;-57
2023/03/30 07:27:03;;;;;;;4.75;1.40;;;15.70;70.90;;;;;;10322698;28;20039;-56
2023/03/30 07:32:04;;;;;;;9.77;2.13;;;15.70;70.90;;;;;;10322731;28;20022;-57
2023/03/30 07:37:05;;;;;;;6.60;1.73;;;15.70;70.80;;;;;;10323666;28;20480;-57
2023/03/30 07:42:06;;;;;;;4.90;1.48;;;15.80;70.70;;;;;;10323661;28;20046;-57
2023/03/30 07:47:06;;;;;;;5.07;1.90;;;15.80;70.50;;;;;;10323736;28;20077;-56
2023/03/30 07:52:07;;;;;;;4.82;1.23;;;15.90;70.20;;;;;;10323576;28;20105;-56
2023/03/30 07:57:08;;;;;;;7.28;1.50;;;16.00;70.00;;;;;;10323267;28;20021;-57
2023/03/30 08:02:12;;;;;;;6.05;1.85;;;15.90;70.00;;;;;;10331797;28;20073;-56
2023/03/30 08:07:13;;;;;;;6.20;1.90;;;15.90;70.10;;;;;;10319610;28;20117;-56
2023/03/30 08:12:14;;;;;;;5.22;2.15;;;15.90;70.20;;;;;;10320062;28;20027;-54
2023/03/30 08:17:14;;;;;;;6.80;2.00;;;15.80;70.20;;;;;;10328371;28;20052;-56
2023/03/30 08:22:15;;;;;;;4.75;1.65;;;15.80;70.20;;;;;;10327578;28;20121;-56
2023/03/30 08:27:16;;;;;;;5.15;1.85;;;15.80;70.30;;;;;;10328420;28;20110;-56
2023/03/30 08:32:17;;;;;;;9.48;2.03;;;15.90;70.10;;;;;;10330268;28;20429;-56
2023/03/30 08:37:18;;;;;;;3.22;1.02;;;15.90;70.10;;;;;;10329996;28;20077;-57
2023/03/30 08:42:58;;;;;;;5.30;1.77;;;15.90;70.10;;;;;;10330070;28;20028;-55
2023/03/30 08:48:00;;;;;;;4.05;1.35;;;15.90;70.10;;;;;;10329470;28;20437;-57
2023/03/30 08:53:06;;;;;;;5.20;1.48;;;15.80;70.10;;;;;;10328672;28;20409;-57
2023/03/30 08:58:25;;;;;;;5.28;1.80;;;15.80;70.20;;;;;;10327163;28;20022;-57
2023/03/30 09:03:41;;;;;;;7.30;2.10;;;15.80;70.10;;;;;;10335267;28;20492;-56
2023/03/30 09:08:42;;;;;;;4.40;1.33;;;15.90;70.10;;;;;;10327726;28;20032;-57
2023/03/30 09:13:45;;;;;;;5.13;2.55;;;15.80;70.10;;;;;;10327395;28;20106;-57
2023/03/30 09:18:52;;;;;;;4.88;1.50;;;15.80;70.00;;;;;;10328575;28;20080;-57
2023/03/30 09:23:58;;;;;;;4.05;1.15;;;15.80;70.20;;;;;;10326396;28;20414;-57
2023/03/30 09:29:16;;;;;;;4.88;1.98;;;15.80;70.10;;;;;;10326780;28;20479;-56
2023/03/30 09:34:49;;;;;;;4.78;1.98;;;15.80;70.30;;;;;;10327712;28;20026;-55
2023/03/30 09:39:49;;;;;;;2.65;1.40;;;15.80;70.50;;;;;;10328327;28;20026;-56
2023/03/30 09:45:38;;;;;;;4.40;1.90;;;15.80;70.70;;;;;;10319582;28;20114;-56
2023/03/30 09:50:45;;;;;;;3.65;2.78;;;15.80;70.90;;;;;;10322890;28;20050;-55
2023/03/30 09:56:11;;;;;;;2.00;1.35;;;15.80;70.80;;;;;;10322583;28;20015;-56
2023/03/30 10:01:18;;;;;;;3.33;1.90;;;15.80;70.70;;;;;;10349974;28;20035;-57
2023/03/30 10:06:20;;;;;;;3.45;1.58;;;15.80;71.00;;;;;;10324165;28;20045;-55
2023/03/30 10:11:40;;;;;;;4.18;1.55;;;15.90;70.90;;;;;;10320862;28;20018;-55
2023/03/30 10:16:43;;;;;;;5.40;1.40;;;15.90;70.80;;;;;;10321897;28;20464;-54
2023/03/30 10:21:47;;;;;;;5.13;1.92;;;15.80;70.80;;;;;;10321435;28;20029;-55
2023/03/30 10:26:54;;;;;;;6.45;1.50;;;15.80;70.90;;;;;;10323879;28;20023;-55
2023/03/30 10:32:08;;;;;;;4.15;1.65;;;15.80;70.90;;;;;;10324069;28;20081;-55
2023/03/30 10:37:27;;;;;;;3.03;1.52;;;15.80;70.80;;;;;;10322359;28;20362;-55
2023/03/30 10:42:31;;;;;;;4.30;1.42;;;15.80;71.00;;;;;;10320991;28;20058;-56
2023/03/30 10:47:55;;;;;;;4.22;1.58;;;15.90;71.50;;;;;;10304865;28;20039;-54
2023/03/30 10:53:25;;;;;;;5.68;2.08;;;16.00;71.50;;;;;;10321782;28;20018;-55
2023/03/30 10:58:51;;;;;;;8.60;3.25;;;16.00;71.50;;;;;;10323080;28;20089;-54
2023/03/30 11:04:00;;;;;;;7.28;2.42;;;16.00;71.60;;;;;;10320269;28;20097;-54
2023/03/30 11:09:07;;;;;;;2.90;1.30;;;16.10;71.80;;;;;;10321361;28;20021;-57
2023/03/30 11:14:22;;;;;;;5.70;2.13;;;16.00;71.10;;;;;;10319911;28;20053;-55
2023/03/30 11:19:38;;;;;;;3.42;1.67;;;15.90;71.30;;;;;;10321831;28;20113;-55
2023/03/30 11:24:42;;;;;;;6.72;2.05;;;15.90;71.40;;;;;;10336208;28;20034;-55
2023/03/30 11:29:52;;;;;;;7.18;2.17;;;15.90;71.50;;;;;;10322428;28;20053;-55
2023/03/30 11:35:25;;;;;;;4.68;1.90;;;15.80;71.40;;;;;;10320848;28;20027;-55
2023/03/30 11:40:37;;;;;;;2.97;1.48;;;15.80;71.40;;;;;;10320610;28;20034;-53
2023/03/30 11:45:42;;;;;;;7.60;2.47;;;15.80;71.40;;;;;;10319952;28;20034;-55
2023/03/30 11:51:27;;;;;;;5.05;2.05;;;15.80;71.30;;;;;;10328896;28;20385;-54
2023/03/30 11:56:45;;;;;;;4.30;1.90;;;15.80;71.40;;;;;;10330602;28;20042;-54
2023/03/30 12:02:13;;;;;;;6.82;1.85;;;15.80;71.30;;;;;;10338837;28;20430;-55
2023/03/30 12:07:38;;;;;;;3.35;1.75;;;15.80;71.20;;;;;;10344987;28;20513;-56
2023/03/30 12:12:40;;;;;;;6.28;2.30;;;15.90;71.20;;;;;;10328449;28;20026;-55
2023/03/30 12:17:51;;;;;;;4.80;1.88;;;15.90;71.30;;;;;;10327462;28;20250;-55
2023/03/30 12:22:58;;;;;;;3.78;1.67;;;15.90;71.20;;;;;;10327376;28;20041;-55
2023/03/30 12:28:12;;;;;;;5.35;1.70;;;15.90;71.00;;;;;;10328045;28;20113;-54
2023/03/30 12:33:24;;;;;;;4.97;1.65;;;15.90;71.10;;;;;;10326750;28;20114;-54
2023/03/30 12:38:40;;;;;;;8.98;3.15;;;15.90;71.20;;;;;;10329072;28;20685;-53
2023/03/30 12:43:48;;;;;;;6.82;2.03;;;15.90;71.10;;;;;;10315195;28;20433;-55
2023/03/30 12:49:25;;;;;;;3.67;2.08;;;15.90;71.00;;;;;;10326994;28;20129;-55
2023/03/30 12:55:20;;;;;;;6.88;2.42;;;16.00;71.00;;;;;;10329079;28;20033;-55
2023/03/30 13:00:30;;;;;;;5.05;1.85;;;16.00;70.80;;;;;;10320661;28;20030;-54
2023/03/30 13:05:37;;;;;;;4.13;1.70;;;16.00;70.80;;;;;;10328658;28;20070;-54
2023/03/30 13:10:41;;;;;;;5.32;1.90;;;16.00;70.90;;;;;;10326891;28;20477;-55
2023/03/30 13:15:53;;;;;;;6.63;1.83;;;15.90;70.80;;;;;;10327969;28;20034;-54
2023/03/30 13:20:54;;;;;;;3.83;1.65;;;15.90;70.90;;;;;;10327231;28;20061;-56
2023/03/30 13:26:16;;;;;;;5.78;2.80;;;15.90;70.90;;;;;;10327022;28;20142;-54
2023/03/30 13:31:53;;;;;;;6.32;1.85;;;15.90;70.90;;;;;;10326744;28;20026;-55
2023/03/30 13:37:25;;;;;;;3.00;1.60;;;15.90;71.00;;;;;;10327034;28;20022;-55
2023/03/30 13:43:08;;;;;;;4.65;1.67;;;15.90;71.00;;;;;;10327415;28;20026;-55
2023/03/30 13:48:43;;;;;;;5.00;1.80;;;15.90;71.00;;;;;;10326460;28;20027;-55
2023/03/30 13:53:52;;;;;;;6.35;2.08;;;15.90;70.90;;;;;;10325739;28;20038;-55
2023/03/30 13:59:15;;;;;;;3.30;1.80;;;15.90;70.90;;;;;;10329980;28;20045;-55
2023/03/30 14:04:16;;;;;;;4.60;1.70;;;15.90;71.00;;;;;;10328907;28;20109;-55
2023/03/30 14:09:26;;;;;;;7.55;2.70;;;15.90;70.90;;;;;;10326335;28;20019;-54
2023/03/30 14:14:42;;;;;;;4.45;1.88;;;15.90;70.90;;;;;;10324171;28;20065;-55
2023/03/30 14:20:19;;;;;;;4.85;1.50;;;15.90;70.90;;;;;;10322717;28;20046;-55
2023/03/30 14:25:39;;;;;;;5.78;1.65;;;16.00;70.90;;;;;;10325675;28;20022;-55
2023/03/30 14:30:56;;;;;;;7.25;2.40;;;16.00;70.60;;;;;;10324136;28;20023;-54
2023/03/30 14:36:00;;;;;;;4.18;1.98;;;16.00;70.60;;;;;;10324881;28;20041;-55
2023/03/30 14:41:05;;;;;;;4.30;1.40;;;16.00;70.70;;;;;;10323116;28;20156;-54
2023/03/30 14:46:10;;;;;;;6.00;2.15;;;16.00;70.70;;;;;;10323712;28;20039;-55
2023/03/30 14:51:39;;;;;;;6.95;2.22;;;15.90;70.80;;;;;;10324669;28;20110;-54
2023/03/30 14:56:41;;;;;;;4.10;1.50;;;15.90;70.80;;;;;;10323870;28;20687;-55
2023/03/30 15:01:42;;;;;;;5.25;2.80;;;15.90;70.80;;;;;;10333893;28;20049;-55
2023/03/30 15:06:46;;;;;;;3.97;1.60;;;15.90;70.80;;;;;;10323692;28;20769;-55
2023/03/30 15:12:07;;;;;;;3.65;1.60;;;15.90;70.80;;;;;;10323536;28;20109;-55
2023/03/30 15:17:13;;;;;;;3.17;1.50;;;15.90;70.80;;;;;;10322131;28;20045;-54
2023/03/30 15:22:47;;;;;;;4.70;1.65;;;16.00;70.70;;;;;;10320122;28;20077;-55
2023/03/30 15:28:00;;;;;;;6.28;1.40;;;16.00;70.70;;;;;;10313374;28;20041;-55
2023/03/30 15:33:01;;;;;;;5.85;1.83;;;16.00;70.60;;;;;;10322376;28;20019;-55
2023/03/30 15:38:10;;;;;;;4.45;2.28;;;16.00;70.70;;;;;;10319786;28;20133;-55
2023/03/30 15:43:24;;;;;;;29.45;12.40;;;15.90;70.60;;;;;;10321494;28;20081;-55
2023/03/30 15:48:47;;;;;;;70.35;32.83;;;16.00;70.10;;;;;;10319199;28;20101;-55
2023/03/30 15:54:02;;;;;;;54.60;25.70;;;16.10;69.80;;;;;;10319193;28;20034;-52
2023/03/30 15:59:04;;;;;;;35.88;13.90;;;16.30;69.40;;;;;;10320003;28;20030;-55
2023/03/30 16:04:06;;;;;;;31.30;11.80;;;16.50;68.70;;;;;;10319665;28;20161;-54
2023/03/30 16:09:06;;;;;;;19.33;10.32;;;16.70;68.00;;;;;;10317416;28;20481;-54
2023/03/30 16:14:14;;;;;;;19.85;8.23;;;16.90;68.90;;;;;;10321529;28;20022;-54
2023/03/30 16:19:18;;;;;;;24.60;9.05;;;17.20;69.90;;;;;;10321323;28;20045;-54
2023/03/30 16:24:19;;;;;;;20.55;8.80;;;17.20;70.10;;;;;;10323247;28;20424;-53
2023/03/30 16:29:23;;;;;;;26.33;8.35;;;17.30;70.00;;;;;;10318588;28;20167;-55
2023/03/30 16:34:25;;;;;;;18.38;9.43;;;17.20;70.40;;;;;;10321072;28;20035;-56
2023/03/30 16:39:28;;;;;;;35.80;10.30;;;17.10;70.20;;;;;;10325063;28;20086;-51
2023/03/30 16:44:29;;;;;;;23.80;9.70;;;16.90;70.70;;;;;;10324187;28;20046;-54
2023/03/30 16:49:29;;;;;;;16.70;8.93;;;16.90;71.30;;;;;;10325707;28;20022;-56
2023/03/30 16:54:30;;;;;;;26.42;9.57;;;16.90;70.10;;;;;;10324016;28;20125;-54
2023/03/30 16:59:31;;;;;;;21.67;8.57;;;17.00;70.90;;;;;;10325453;28;20034;-56
2023/03/30 17:04:32;;;;;;;20.98;7.18;;;17.10;70.50;;;;;;10324084;28;20038;-55
2023/03/30 17:09:33;;;;;;;22.98;7.63;;;16.80;70.00;;;;;;10326484;28;20423;-54
2023/03/30 17:14:34;;;;;;;18.02;8.43;;;16.70;70.60;;;;;;10328374;28;20053;-55
2023/03/30 17:19:34;;;;;;;24.35;8.48;;;16.60;70.50;;;;;;10328205;28;20165;-55
2023/03/30 17:24:35;;;;;;;15.00;7.20;;;16.50;70.80;;;;;;10326095;28;20066;-55
2023/03/30 17:29:35;;;;;;;17.00;6.90;;;16.50;71.40;;;;;;10324956;28;20518;-56
2023/03/30 17:34:36;;;;;;;15.75;6.97;;;16.50;70.90;;;;;;10326225;28;20125;-54
2023/03/30 17:39:37;;;;;;;11.77;6.32;;;16.40;70.80;;;;;;10327578;28;20069;-54
2023/03/30 17:44:37;;;;;;;19.30;8.07;;;16.40;70.70;;;;;;10324729;28;20121;-55
2023/03/30 17:49:39;;;;;;;17.42;7.97;;;16.40;71.50;;;;;;10321477;28;20106;-54
2023/03/30 17:54:40;;;;;;;17.63;5.78;;;16.30;71.70;;;;;;10325743;28;20219;-55
2023/03/30 17:59:41;;;;;;;16.63;7.47;;;16.30;71.00;;;;;;10334708;28;20069;-55
2023/03/30 18:04:41;;;;;;;16.08;6.03;;;16.30;72.20;;;;;;10324808;28;20137;-53
2023/03/30 18:09:42;;;;;;;14.63;6.30;;;16.20;72.00;;;;;;10325342;28;20466;-54
2023/03/30 18:14:42;;;;;;;15.65;6.00;;;16.20;71.30;;;;;;10324706;28;20125;-54
2023/03/30 18:19:43;;;;;;;11.65;5.45;;;16.30;71.30;;;;;;10323565;28;20054;-55
2023/03/30 18:24:44;;;;;;;13.02;4.65;;;16.20;71.20;;;;;;10325051;28;20022;-55
2023/03/30 18:29:45;;;;;;;14.57;5.70;;;16.20;71.30;;;;;;10325007;28;20050;-55
2023/03/30 18:34:45;;;;;;;10.05;4.57;;;16.20;71.30;;;;;;10324559;28;20026;-56
2023/03/30 18:39:46;;;;;;;12.50;5.82;;;16.30;71.80;;;;;;10324929;28;20161;-54
2023/03/30 18:44:47;;;;;;;9.80;4.72;;;16.20;71.20;;;;;;10323035;28;20126;-54
2023/03/30 18:49:47;;;;;;;12.10;4.68;;;16.30;71.20;;;;;;10321669;28;20088;-54
2023/03/30 18:54:48;;;;;;;13.95;5.25;;;16.50;70.90;;;;;;10320501;28;20100;-54
2023/03/30 18:59:49;;;;;;;14.82;5.05;;;16.60;70.80;;;;;;10330604;28;20060;-55
2023/03/30 19:04:50;;;;;;;9.93;4.20;;;16.60;71.00;;;;;;10322114;28;20417;-55
2023/03/30 19:09:51;;;;;;;13.25;5.78;;;16.50;70.90;;;;;;10322970;28;20023;-55
2023/03/30 19:14:52;;;;;;;10.23;4.82;;;16.50;71.00;;;;;;10323329;28;20109;-54
2023/03/30 19:19:52;;;;;;;8.25;4.38;;;16.40;71.10;;;;;;10323737;28;20850;-55
2023/03/30 19:24:53;;;;;;;10.82;4.10;;;16.40;71.10;;;;;;10322202;28;20058;-54
2023/03/30 19:29:53;;;;;;;8.27;3.72;;;16.40;71.10;;;;;;10323458;28;20130;-53
2023/03/30 19:34:55;;;;;;;9.77;3.42;;;16.30;71.10;;;;;;10322887;28;20022;-55
2023/03/30 19:39:55;;;;;;;13.00;4.32;;;16.30;71.10;;;;;;10321104;28;20031;-55
2023/03/30 19:44:56;;;;;;;7.63;4.15;;;16.30;71.10;;;;;;10321742;28;20062;-55
2023/03/30 19:50:10;;;;;;;8.40;3.47;;;16.30;71.20;;;;;;10323200;28;20053;-55
2023/03/30 19:55:10;;;;;;;9.13;3.60;;;16.20;71.20;;;;;;10323074;28;20474;-55
2023/03/30 20:00:14;;;;;;;8.88;3.63;;;16.20;71.30;;;;;;10331887;28;20105;-55
2023/03/30 20:05:16;;;;;;;11.35;5.70;;;16.20;71.30;;;;;;10320899;28;20046;-54
2023/03/30 20:10:23;;;;;;;6.85;2.63;;;16.10;71.20;;;;;;10324734;28;20037;-55
2023/03/30 20:15:25;;;;;;;10.63;4.07;;;16.10;71.20;;;;;;10331258;28;20018;-54
2023/03/30 20:20:26;;;;;;;8.07;3.55;;;16.10;71.30;;;;;;10330723;28;20036;-55
2023/03/30 20:25:26;;;;;;;5.95;3.05;;;16.10;71.40;;;;;;10330658;28;20034;-56
2023/03/30 20:30:27;;;;;;;5.65;3.40;;;16.10;71.40;;;;;;10330952;28;20524;-55
2023/03/30 20:35:28;;;;;;;8.45;3.65;;;16.10;71.50;;;;;;10330255;28;20084;-55
2023/03/30 20:40:30;;;;;;;8.00;3.00;;;16.00;71.50;;;;;;10329986;28;20189;-55
2023/03/30 20:45:31;;;;;;;9.10;2.85;;;16.00;71.50;;;;;;10329424;28;20598;-54
2023/03/30 20:50:32;;;;;;;6.40;3.22;;;16.00;71.50;;;;;;10329553;28;20027;-55
2023/03/30 20:55:33;;;;;;;6.20;3.22;;;16.00;71.60;;;;;;10329811;28;20023;-55
2023/03/30 21:00:33;;;;;;;6.03;2.33;;;16.00;71.80;;;;;;10340681;28;20533;-55
2023/03/30 21:05:34;;;;;;;3.75;2.25;;;16.00;71.80;;;;;;10329331;28;20097;-55
2023/03/30 21:10:35;;;;;;;5.38;2.15;;;16.00;71.80;;;;;;10328911;28;20018;-55
2023/03/30 21:15:35;;;;;;;5.72;2.30;;;15.90;71.80;;;;;;10323294;28;20161;-55
2023/03/30 21:20:36;;;;;;;5.75;2.13;;;15.90;71.80;;;;;;10327157;28;20066;-55
2023/03/30 21:25:41;;;;;;;2.67;1.58;;;15.90;71.80;;;;;;10328115;28;20618;-55
2023/03/30 21:30:41;;;;;;;3.95;1.65;;;15.90;71.80;;;;;;10328108;28;20509;-54
2023/03/30 21:35:46;;;;;;;4.10;1.80;;;15.90;71.90;;;;;;10328157;28;20112;-55
2023/03/30 21:41:17;;;;;;;3.15;1.50;;;15.80;71.80;;;;;;10327934;28;20113;-53
2023/03/30 21:46:20;;;;;;;4.45;1.58;;;15.80;71.90;;;;;;10327790;28;20176;-56
2023/03/30 21:51:27;;;;;;;5.72;2.22;;;15.80;71.90;;;;;;10327412;28;20034;-55
2023/03/30 21:56:30;;;;;;;5.05;2.83;;;15.80;72.00;;;;;;10327184;28;20026;-56
2023/03/30 22:01:30;;;;;;;3.60;1.75;;;15.80;71.90;;;;;;10338129;28;20051;-54
2023/03/30 22:06:31;;;;;;;6.28;1.73;;;15.80;71.90;;;;;;10326471;28;20612;-55
2023/03/30 22:11:32;;;;;;;6.60;2.05;;;15.80;71.90;;;;;;10325777;28;20022;-54
2023/03/30 22:16:35;;;;;;;3.35;2.08;;;15.80;71.90;;;;;;10326533;28;20041;-54
2023/03/30 22:21:36;;;;;;;4.72;2.53;;;15.80;71.90;;;;;;10326099;28;20038;-55
2023/03/30 22:26:36;;;;;;;2.90;1.50;;;15.80;71.90;;;;;;10324938;28;20141;-55
2023/03/30 22:31:40;;;;;;;4.95;2.40;;;15.80;71.90;;;;;;10325669;28;20405;-55
2023/03/30 22:36:41;;;;;;;3.65;1.90;;;15.70;71.80;;;;;;10325573;28;20034;-54
2023/03/30 22:41:41;;;;;;;3.95;1.70;;;15.80;71.80;;;;;;10325651;28;20015;-55
2023/03/30 22:46:42;;;;;;;3.75;1.85;;;15.80;71.80;;;;;;10325131;28;20034;-54
2023/03/30 22:51:48;;;;;;;2.30;1.38;;;15.70;71.80;;;;;;10324715;28;20102;-55
2023/03/30 22:56:49;;;;;;;4.50;1.92;;;15.70;71.70;;;;;;10324876;28;20022;-54
2023/03/30 23:01:50;;;;;;;3.55;1.58;;;15.70;71.70;;;;;;10334802;28;20050;-54
2023/03/30 23:06:53;;;;;;;4.38;2.03;;;15.70;71.60;;;;;;10324670;28;20035;-55
2023/03/30 23:11:54;;;;;;;3.03;1.58;;;15.70;71.50;;;;;;10324767;28;20018;-54
2023/03/30 23:16:56;;;;;;;5.50;1.75;;;15.70;71.60;;;;;;10324191;28;20127;-54
2023/03/30 23:21:57;;;;;;;2.40;1.42;;;15.70;71.60;;;;;;10324073;28;20030;-55
2023/03/30 23:26:58;;;;;;;4.07;1.65;;;15.70;71.60;;;;;;10324190;28;20453;-55
2023/03/30 23:31:58;;;;;;;3.20;1.50;;;15.70;71.60;;;;;;10324106;28;20062;-55
2023/03/30 23:36:59;;;;;;;3.47;1.33;;;15.70;71.50;;;;;;10324575;28;20050;-55
2023/03/30 23:42:00;;;;;;;2.85;1.85;;;15.60;71.50;;;;;;10322806;28;20619;-54
2023/03/30 23:47:01;;;;;;;3.47;1.55;;;15.70;71.50;;;;;;10330241;28;20044;-55
2023/03/30 23:52:01;;;;;;;4.20;1.67;;;15.70;71.40;;;;;;10331878;28;20481;-55
2023/03/30 23:57:06;;;;;;;2.42;1.48;;;15.60;71.40;;;;;;10332511;28;20380;-54
